sensor_id;sensor_type;location;lat;lon;timestamp;P1;durP1;ratioP1;P2;durP2;ratioP2
75912;SDS011;64592;52.168;21.040;2022-12-10T00:01:02;66.00;;;30.00;;
75912;SDS011;64592;52.168;21.040;2022-12-10T00:06:06;79.80;;;33.45;;
75912;SDS011;64592;52.168;21.040;2022-12-10T00:11:12;80.50;;;36.53;;
75912;SDS011;64592;52.168;21.040;2022-12-10T00:16:16;84.22;;;40.17;;
75912;SDS011;64592;52.168;21.040;2022-12-10T00:21:19;82.68;;;36.53;;
75912;SDS011;64592;52.168;21.040;2022-12-10T00:26:25;87.20;;;35.95;;
75912;SDS011;64592;52.168;21.040;2022-12-10T00:31:29;80.68;;;34.67;;
75912;SDS011;64592;52.168;21.040;2022-12-10T00:36:33;84.57;;;38.63;;
75912;SDS011;64592;52.168;21.040;2022-12-10T00:41:38;69.57;;;32.80;;
75912;SDS011;64592;52.168;21.040;2022-12-10T00:46:39;86.30;;;37.58;;
75912;SDS011;64592;52.168;21.040;2022-12-10T00:51:41;69.53;;;31.42;;
75912;SDS011;64592;52.168;21.040;2022-12-10T00:56:44;81.47;;;37.63;;
75912;SDS011;64592;52.168;21.040;2022-12-10T01:01:47;77.50;;;33.83;;
75912;SDS011;64592;52.168;21.040;2022-12-10T01:06:49;84.05;;;33.70;;
75912;SDS011;64592;52.168;21.040;2022-12-10T01:11:55;83.22;;;34.88;;
75912;SDS011;64592;52.168;21.040;2022-12-10T01:16:58;78.50;;;35.35;;
75912;SDS011;64592;52.168;21.040;2022-12-10T01:22:02;82.65;;;34.88;;
75912;SDS011;64592;52.168;21.040;2022-12-10T01:27:05;81.82;;;34.45;;
75912;SDS011;64592;52.168;21.040;2022-12-10T01:32:07;92.78;;;36.67;;
75912;SDS011;64592;52.168;21.040;2022-12-10T01:37:08;77.10;;;34.85;;
75912;SDS011;64592;52.168;21.040;2022-12-10T01:42:12;83.50;;;34.75;;
75912;SDS011;64592;52.168;21.040;2022-12-10T01:47:14;89.15;;;38.97;;
75912;SDS011;64592;52.168;21.040;2022-12-10T01:52:16;67.97;;;30.58;;
75912;SDS011;64592;52.168;21.040;2022-12-10T01:57:21;67.10;;;31.38;;
75912;SDS011;64592;52.168;21.040;2022-12-10T02:02:30;64.03;;;26.30;;
75912;SDS011;64592;52.168;21.040;2022-12-10T02:07:46;67.35;;;26.88;;
75912;SDS011;64592;52.168;21.040;2022-12-10T02:13:03;64.03;;;26.40;;
75912;SDS011;64592;52.168;21.040;2022-12-10T02:18:09;63.50;;;28.98;;
75912;SDS011;64592;52.168;21.040;2022-12-10T02:23:16;65.43;;;28.02;;
75912;SDS011;64592;52.168;21.040;2022-12-10T02:28:26;62.25;;;26.45;;
75912;SDS011;64592;52.168;21.040;2022-12-10T02:33:37;57.88;;;27.25;;
75912;SDS011;64592;52.168;21.040;2022-12-10T02:38:42;48.08;;;22.77;;
75912;SDS011;64592;52.168;21.040;2022-12-10T02:43:45;53.83;;;25.05;;
75912;SDS011;64592;52.168;21.040;2022-12-10T02:48:51;62.17;;;24.13;;
75912;SDS011;64592;52.168;21.040;2022-12-10T02:54:04;65.18;;;25.63;;
75912;SDS011;64592;52.168;21.040;2022-12-10T03:04:16;56.75;;;21.73;;
75912;SDS011;64592;52.168;21.040;2022-12-10T03:09:24;58.85;;;26.55;;
75912;SDS011;64592;52.168;21.040;2022-12-10T03:14:32;54.10;;;25.30;;
75912;SDS011;64592;52.168;21.040;2022-12-10T03:19:36;54.15;;;22.83;;
75912;SDS011;64592;52.168;21.040;2022-12-10T03:24:41;48.17;;;21.48;;
75912;SDS011;64592;52.168;21.040;2022-12-10T03:29:46;51.05;;;20.17;;
75912;SDS011;64592;52.168;21.040;2022-12-10T03:34:51;46.38;;;21.80;;
75912;SDS011;64592;52.168;21.040;2022-12-10T03:39:55;53.55;;;21.52;;
75912;SDS011;64592;52.168;21.040;2022-12-10T03:44:58;59.53;;;24.83;;
75912;SDS011;64592;52.168;21.040;2022-12-10T03:50:00;54.97;;;22.67;;
75912;SDS011;64592;52.168;21.040;2022-12-10T03:55:02;55.78;;;24.67;;
75912;SDS011;64592;52.168;21.040;2022-12-10T04:00:05;53.55;;;23.23;;
75912;SDS011;64592;52.168;21.040;2022-12-10T04:05:10;49.45;;;21.38;;
75912;SDS011;64592;52.168;21.040;2022-12-10T04:10:12;51.42;;;22.52;;
75912;SDS011;64592;52.168;21.040;2022-12-10T04:15:14;61.83;;;22.92;;
75912;SDS011;64592;52.168;21.040;2022-12-10T04:20:34;49.30;;;19.67;;
75912;SDS011;64592;52.168;21.040;2022-12-10T04:25:53;45.67;;;20.13;;
75912;SDS011;64592;52.168;21.040;2022-12-10T04:31:12;52.35;;;23.23;;
75912;SDS011;64592;52.168;21.040;2022-12-10T04:36:15;54.30;;;24.63;;
75912;SDS011;64592;52.168;21.040;2022-12-10T04:41:17;56.45;;;21.23;;
75912;SDS011;64592;52.168;21.040;2022-12-10T04:46:19;60.28;;;21.83;;
75912;SDS011;64592;52.168;21.040;2022-12-10T04:51:23;54.88;;;20.90;;
75912;SDS011;64592;52.168;21.040;2022-12-10T04:56:24;55.38;;;21.90;;
75912;SDS011;64592;52.168;21.040;2022-12-10T05:01:26;48.72;;;18.52;;
75912;SDS011;64592;52.168;21.040;2022-12-10T05:06:31;50.42;;;21.85;;
75912;SDS011;64592;52.168;21.040;2022-12-10T05:11:33;41.80;;;16.38;;
75912;SDS011;64592;52.168;21.040;2022-12-10T05:16:36;44.58;;;20.05;;
75912;SDS011;64592;52.168;21.040;2022-12-10T05:21:39;46.97;;;20.33;;
75912;SDS011;64592;52.168;21.040;2022-12-10T05:26:54;43.70;;;20.90;;
75912;SDS011;64592;52.168;21.040;2022-12-10T05:31:57;43.10;;;17.08;;
75912;SDS011;64592;52.168;21.040;2022-12-10T05:37:00;41.03;;;17.83;;
75912;SDS011;64592;52.168;21.040;2022-12-10T05:42:02;39.00;;;17.60;;
75912;SDS011;64592;52.168;21.040;2022-12-10T05:47:04;35.58;;;18.58;;
75912;SDS011;64592;52.168;21.040;2022-12-10T05:52:07;40.33;;;16.20;;
75912;SDS011;64592;52.168;21.040;2022-12-10T05:57:09;35.75;;;16.15;;
75912;SDS011;64592;52.168;21.040;2022-12-10T06:02:11;43.33;;;17.65;;
75912;SDS011;64592;52.168;21.040;2022-12-10T06:07:14;35.72;;;15.60;;
75912;SDS011;64592;52.168;21.040;2022-12-10T06:12:15;45.08;;;16.35;;
75912;SDS011;64592;52.168;21.040;2022-12-10T06:17:17;35.78;;;14.18;;
75912;SDS011;64592;52.168;21.040;2022-12-10T06:22:20;49.22;;;16.05;;
75912;SDS011;64592;52.168;21.040;2022-12-10T06:27:21;39.65;;;16.02;;
75912;SDS011;64592;52.168;21.040;2022-12-10T06:32:23;36.67;;;16.27;;
75912;SDS011;64592;52.168;21.040;2022-12-10T06:37:26;45.40;;;15.70;;
75912;SDS011;64592;52.168;21.040;2022-12-10T06:42:28;37.13;;;16.05;;
75912;SDS011;64592;52.168;21.040;2022-12-10T06:47:29;42.03;;;15.25;;
75912;SDS011;64592;52.168;21.040;2022-12-10T06:52:32;36.28;;;14.18;;
75912;SDS011;64592;52.168;21.040;2022-12-10T06:57:34;35.28;;;14.02;;
75912;SDS011;64592;52.168;21.040;2022-12-10T07:02:36;33.50;;;14.80;;
75912;SDS011;64592;52.168;21.040;2022-12-10T07:07:39;37.33;;;15.07;;
75912;SDS011;64592;52.168;21.040;2022-12-10T07:12:41;51.55;;;16.50;;
75912;SDS011;64592;52.168;21.040;2022-12-10T07:17:42;50.35;;;19.88;;
75912;SDS011;64592;52.168;21.040;2022-12-10T07:22:45;45.80;;;15.13;;
75912;SDS011;64592;52.168;21.040;2022-12-10T07:27:47;51.60;;;18.52;;
75912;SDS011;64592;52.168;21.040;2022-12-10T07:32:49;45.90;;;17.30;;
75912;SDS011;64592;52.168;21.040;2022-12-10T07:37:52;44.42;;;15.95;;
75912;SDS011;64592;52.168;21.040;2022-12-10T07:42:53;58.58;;;18.90;;
75912;SDS011;64592;52.168;21.040;2022-12-10T07:47:55;49.42;;;18.27;;
75912;SDS011;64592;52.168;21.040;2022-12-10T07:52:58;56.00;;;20.33;;
75912;SDS011;64592;52.168;21.040;2022-12-10T07:57:59;48.78;;;16.90;;
75912;SDS011;64592;52.168;21.040;2022-12-10T08:03:01;48.78;;;18.13;;
75912;SDS011;64592;52.168;21.040;2022-12-10T08:08:04;48.83;;;18.23;;
75912;SDS011;64592;52.168;21.040;2022-12-10T08:13:06;53.22;;;17.95;;
75912;SDS011;64592;52.168;21.040;2022-12-10T08:18:08;50.42;;;16.75;;
75912;SDS011;64592;52.168;21.040;2022-12-10T08:23:11;51.70;;;16.10;;
75912;SDS011;64592;52.168;21.040;2022-12-10T08:28:12;43.22;;;17.20;;
75912;SDS011;64592;52.168;21.040;2022-12-10T08:33:14;42.70;;;16.20;;
75912;SDS011;64592;52.168;21.040;2022-12-10T08:38:17;48.03;;;17.23;;
75912;SDS011;64592;52.168;21.040;2022-12-10T08:43:19;47.92;;;17.90;;
75912;SDS011;64592;52.168;21.040;2022-12-10T08:48:20;49.85;;;15.10;;
75912;SDS011;64592;52.168;21.040;2022-12-10T08:53:25;32.42;;;13.25;;
75912;SDS011;64592;52.168;21.040;2022-12-10T08:58:26;39.13;;;15.60;;
75912;SDS011;64592;52.168;21.040;2022-12-10T09:03:28;46.85;;;18.17;;
75912;SDS011;64592;52.168;21.040;2022-12-10T09:08:31;46.20;;;16.50;;
75912;SDS011;64592;52.168;21.040;2022-12-10T09:13:33;44.60;;;16.20;;
75912;SDS011;64592;52.168;21.040;2022-12-10T09:18:35;48.05;;;15.68;;
75912;SDS011;64592;52.168;21.040;2022-12-10T09:23:38;46.60;;;16.38;;
75912;SDS011;64592;52.168;21.040;2022-12-10T09:28:41;42.72;;;14.25;;
75912;SDS011;64592;52.168;21.040;2022-12-10T09:33:44;39.70;;;16.60;;
75912;SDS011;64592;52.168;21.040;2022-12-10T09:38:48;39.97;;;14.73;;
75912;SDS011;64592;52.168;21.040;2022-12-10T09:43:52;46.10;;;17.77;;
75912;SDS011;64592;52.168;21.040;2022-12-10T09:49:05;48.80;;;16.05;;
75912;SDS011;64592;52.168;21.040;2022-12-10T09:54:17;40.50;;;15.23;;
75912;SDS011;64592;52.168;21.040;2022-12-10T09:59:22;48.83;;;15.88;;
75912;SDS011;64592;52.168;21.040;2022-12-10T10:04:28;38.38;;;15.95;;
75912;SDS011;64592;52.168;21.040;2022-12-10T10:09:31;41.50;;;16.35;;
75912;SDS011;64592;52.168;21.040;2022-12-10T10:14:39;39.88;;;15.35;;
75912;SDS011;64592;52.168;21.040;2022-12-10T10:19:42;38.00;;;12.63;;
75912;SDS011;64592;52.168;21.040;2022-12-10T10:24:45;43.08;;;15.85;;
75912;SDS011;64592;52.168;21.040;2022-12-10T10:29:48;43.13;;;15.05;;
75912;SDS011;64592;52.168;21.040;2022-12-10T10:34:52;40.63;;;14.27;;
75912;SDS011;64592;52.168;21.040;2022-12-10T10:39:57;35.20;;;15.57;;
75912;SDS011;64592;52.168;21.040;2022-12-10T10:44:59;36.10;;;13.52;;
75912;SDS011;64592;52.168;21.040;2022-12-10T10:50:01;43.28;;;16.15;;
75912;SDS011;64592;52.168;21.040;2022-12-10T10:55:08;38.95;;;15.63;;
75912;SDS011;64592;52.168;21.040;2022-12-10T11:00:35;39.28;;;13.75;;
75912;SDS011;64592;52.168;21.040;2022-12-10T11:05:37;35.63;;;14.52;;
75912;SDS011;64592;52.168;21.040;2022-12-10T11:10:40;36.95;;;14.18;;
75912;SDS011;64592;52.168;21.040;2022-12-10T11:15:53;39.22;;;13.98;;
75912;SDS011;64592;52.168;21.040;2022-12-10T11:20:58;36.95;;;13.18;;
75912;SDS011;64592;52.168;21.040;2022-12-10T11:26:07;37.22;;;14.57;;
75912;SDS011;64592;52.168;21.040;2022-12-10T11:31:21;39.97;;;13.20;;
75912;SDS011;64592;52.168;21.040;2022-12-10T11:36:33;45.72;;;15.80;;
75912;SDS011;64592;52.168;21.040;2022-12-10T11:41:41;41.10;;;15.15;;
75912;SDS011;64592;52.168;21.040;2022-12-10T11:46:55;41.65;;;14.88;;
75912;SDS011;64592;52.168;21.040;2022-12-10T11:52:08;47.72;;;15.13;;
75912;SDS011;64592;52.168;21.040;2022-12-10T11:57:20;43.50;;;16.10;;
75912;SDS011;64592;52.168;21.040;2022-12-10T12:02:39;31.33;;;11.65;;
75912;SDS011;64592;52.168;21.040;2022-12-10T12:07:55;40.45;;;16.40;;
75912;SDS011;64592;52.168;21.040;2022-12-10T12:13:08;43.10;;;14.15;;
75912;SDS011;64592;52.168;21.040;2022-12-10T12:23:19;42.72;;;14.80;;
75912;SDS011;64592;52.168;21.040;2022-12-10T12:28:27;45.67;;;14.90;;
75912;SDS011;64592;52.168;21.040;2022-12-10T12:33:37;57.22;;;18.58;;
75912;SDS011;64592;52.168;21.040;2022-12-10T12:38:45;44.00;;;16.13;;
75912;SDS011;64592;52.168;21.040;2022-12-10T12:44:00;47.75;;;16.27;;
75912;SDS011;64592;52.168;21.040;2022-12-10T12:49:09;47.08;;;13.77;;
75912;SDS011;64592;52.168;21.040;2022-12-10T12:54:15;43.53;;;14.95;;
75912;SDS011;64592;52.168;21.040;2022-12-10T12:59:19;44.35;;;16.23;;
75912;SDS011;64592;52.168;21.040;2022-12-10T13:04:33;38.40;;;14.93;;
75912;SDS011;64592;52.168;21.040;2022-12-10T13:09:39;41.35;;;17.75;;
75912;SDS011;64592;52.168;21.040;2022-12-10T13:14:56;43.95;;;14.77;;
75912;SDS011;64592;52.168;21.040;2022-12-10T13:25:39;46.35;;;15.90;;
75912;SDS011;64592;52.168;21.040;2022-12-10T13:30:45;43.03;;;16.30;;
75912;SDS011;64592;52.168;21.040;2022-12-10T13:36:21;36.03;;;15.20;;
75912;SDS011;64592;52.168;21.040;2022-12-10T13:41:26;43.88;;;16.50;;
75912;SDS011;64592;52.168;21.040;2022-12-10T13:46:57;40.33;;;18.02;;
75912;SDS011;64592;52.168;21.040;2022-12-10T13:52:01;35.15;;;15.50;;
75912;SDS011;64592;52.168;21.040;2022-12-10T13:57:07;42.03;;;17.60;;
75912;SDS011;64592;52.168;21.040;2022-12-10T14:02:33;39.92;;;16.30;;
75912;SDS011;64592;52.168;21.040;2022-12-10T14:07:48;41.65;;;16.38;;
75912;SDS011;64592;52.168;21.040;2022-12-10T14:12:53;46.30;;;19.55;;
75912;SDS011;64592;52.168;21.040;2022-12-10T14:18:00;42.67;;;16.48;;
75912;SDS011;64592;52.168;21.040;2022-12-10T14:23:04;34.50;;;15.75;;
75912;SDS011;64592;52.168;21.040;2022-12-10T14:28:39;38.35;;;14.70;;
75912;SDS011;64592;52.168;21.040;2022-12-10T14:33:44;40.75;;;15.40;;
75912;SDS011;64592;52.168;21.040;2022-12-10T14:38:47;37.63;;;14.43;;
75912;SDS011;64592;52.168;21.040;2022-12-10T14:43:50;38.50;;;15.77;;
75912;SDS011;64592;52.168;21.040;2022-12-10T14:48:54;41.55;;;19.20;;
75912;SDS011;64592;52.168;21.040;2022-12-10T14:53:56;42.13;;;16.10;;
75912;SDS011;64592;52.168;21.040;2022-12-10T14:59:01;38.10;;;15.05;;
75912;SDS011;64592;52.168;21.040;2022-12-10T15:04:11;33.95;;;16.05;;
75912;SDS011;64592;52.168;21.040;2022-12-10T15:09:16;35.17;;;15.85;;
75912;SDS011;64592;52.168;21.040;2022-12-10T15:14:21;42.47;;;15.98;;
75912;SDS011;64592;52.168;21.040;2022-12-10T15:19:32;34.67;;;17.05;;
75912;SDS011;64592;52.168;21.040;2022-12-10T15:24:36;33.47;;;13.40;;
75912;SDS011;64592;52.168;21.040;2022-12-10T15:29:39;34.65;;;14.30;;
75912;SDS011;64592;52.168;21.040;2022-12-10T15:34:44;35.88;;;15.80;;
75912;SDS011;64592;52.168;21.040;2022-12-10T15:39:48;33.47;;;15.82;;
75912;SDS011;64592;52.168;21.040;2022-12-10T15:44:55;37.05;;;15.43;;
75912;SDS011;64592;52.168;21.040;2022-12-10T15:50:01;27.25;;;13.07;;
75912;SDS011;64592;52.168;21.040;2022-12-10T15:55:02;29.90;;;13.63;;
75912;SDS011;64592;52.168;21.040;2022-12-10T16:00:05;36.17;;;16.45;;
75912;SDS011;64592;52.168;21.040;2022-12-10T16:05:13;43.35;;;19.20;;
75912;SDS011;64592;52.168;21.040;2022-12-10T16:10:17;37.65;;;16.55;;
75912;SDS011;64592;52.168;21.040;2022-12-10T16:15:21;32.05;;;14.00;;
75912;SDS011;64592;52.168;21.040;2022-12-10T16:20:27;34.97;;;16.67;;
75912;SDS011;64592;52.168;21.040;2022-12-10T16:25:30;39.20;;;17.58;;
75912;SDS011;64592;52.168;21.040;2022-12-10T16:30:35;35.20;;;16.30;;
75912;SDS011;64592;52.168;21.040;2022-12-10T16:35:41;39.85;;;16.98;;
75912;SDS011;64592;52.168;21.040;2022-12-10T16:40:44;43.50;;;16.55;;
75912;SDS011;64592;52.168;21.040;2022-12-10T16:45:47;39.63;;;16.45;;
75912;SDS011;64592;52.168;21.040;2022-12-10T16:50:51;46.80;;;20.02;;
75912;SDS011;64592;52.168;21.040;2022-12-10T16:55:53;41.03;;;18.35;;
75912;SDS011;64592;52.168;21.040;2022-12-10T17:00:56;40.17;;;19.73;;
75912;SDS011;64592;52.168;21.040;2022-12-10T17:06:00;40.78;;;20.08;;
75912;SDS011;64592;52.168;21.040;2022-12-10T17:11:07;39.35;;;18.25;;
75912;SDS011;64592;52.168;21.040;2022-12-10T17:16:32;39.75;;;17.45;;
75912;SDS011;64592;52.168;21.040;2022-12-10T17:21:35;36.05;;;17.17;;
75912;SDS011;64592;52.168;21.040;2022-12-10T17:26:37;45.42;;;19.75;;
75912;SDS011;64592;52.168;21.040;2022-12-10T17:31:43;36.83;;;15.38;;
75912;SDS011;64592;52.168;21.040;2022-12-10T17:36:46;36.17;;;17.50;;
75912;SDS011;64592;52.168;21.040;2022-12-10T17:41:48;40.35;;;18.10;;
75912;SDS011;64592;52.168;21.040;2022-12-10T17:46:50;41.08;;;19.40;;
75912;SDS011;64592;52.168;21.040;2022-12-10T17:51:53;37.85;;;19.00;;
75912;SDS011;64592;52.168;21.040;2022-12-10T17:56:59;44.90;;;18.23;;
75912;SDS011;64592;52.168;21.040;2022-12-10T18:02:01;38.42;;;18.77;;
75912;SDS011;64592;52.168;21.040;2022-12-10T18:07:12;36.17;;;19.33;;
75912;SDS011;64592;52.168;21.040;2022-12-10T18:12:15;39.40;;;17.65;;
75912;SDS011;64592;52.168;21.040;2022-12-10T18:17:16;48.05;;;21.95;;
75912;SDS011;64592;52.168;21.040;2022-12-10T18:22:19;41.45;;;19.58;;
75912;SDS011;64592;52.168;21.040;2022-12-10T18:27:21;39.33;;;16.25;;
75912;SDS011;64592;52.168;21.040;2022-12-10T18:32:23;39.55;;;19.55;;
75912;SDS011;64592;52.168;21.040;2022-12-10T18:37:26;32.88;;;16.08;;
75912;SDS011;64592;52.168;21.040;2022-12-10T18:42:27;32.83;;;15.60;;
75912;SDS011;64592;52.168;21.040;2022-12-10T18:47:30;31.63;;;14.88;;
75912;SDS011;64592;52.168;21.040;2022-12-10T18:52:33;36.92;;;16.08;;
75912;SDS011;64592;52.168;21.040;2022-12-10T18:57:35;47.85;;;19.35;;
75912;SDS011;64592;52.168;21.040;2022-12-10T19:02:37;30.17;;;15.70;;
75912;SDS011;64592;52.168;21.040;2022-12-10T19:07:40;35.10;;;18.35;;
75912;SDS011;64592;52.168;21.040;2022-12-10T19:12:41;35.63;;;16.73;;
75912;SDS011;64592;52.168;21.040;2022-12-10T19:17:44;32.97;;;14.82;;
75912;SDS011;64592;52.168;21.040;2022-12-10T19:22:47;38.10;;;17.60;;
75912;SDS011;64592;52.168;21.040;2022-12-10T19:27:49;36.40;;;17.35;;
75912;SDS011;64592;52.168;21.040;2022-12-10T19:32:51;38.22;;;15.60;;
75912;SDS011;64592;52.168;21.040;2022-12-10T19:37:55;40.30;;;17.63;;
75912;SDS011;64592;52.168;21.040;2022-12-10T19:42:57;47.90;;;20.98;;
75912;SDS011;64592;52.168;21.040;2022-12-10T19:47:59;46.80;;;20.45;;
75912;SDS011;64592;52.168;21.040;2022-12-10T19:53:02;41.42;;;18.50;;
75912;SDS011;64592;52.168;21.040;2022-12-10T19:58:05;39.85;;;18.90;;
75912;SDS011;64592;52.168;21.040;2022-12-10T20:03:06;53.47;;;19.75;;
75912;SDS011;64592;52.168;21.040;2022-12-10T20:08:09;42.88;;;16.73;;
75912;SDS011;64592;52.168;21.040;2022-12-10T20:13:11;43.65;;;20.10;;
75912;SDS011;64592;52.168;21.040;2022-12-10T20:18:13;44.70;;;17.33;;
75912;SDS011;64592;52.168;21.040;2022-12-10T20:23:16;48.97;;;21.73;;
75912;SDS011;64592;52.168;21.040;2022-12-10T20:28:18;40.70;;;17.65;;
75912;SDS011;64592;52.168;21.040;2022-12-10T20:33:19;43.25;;;19.55;;
75912;SDS011;64592;52.168;21.040;2022-12-10T20:38:22;41.60;;;17.00;;
75912;SDS011;64592;52.168;21.040;2022-12-10T20:43:24;43.38;;;18.92;;
75912;SDS011;64592;52.168;21.040;2022-12-10T20:48:26;42.47;;;19.27;;
75912;SDS011;64592;52.168;21.040;2022-12-10T20:53:29;41.95;;;20.33;;
75912;SDS011;64592;52.168;21.040;2022-12-10T20:58:30;51.65;;;20.52;;
75912;SDS011;64592;52.168;21.040;2022-12-10T21:03:32;48.22;;;19.95;;
75912;SDS011;64592;52.168;21.040;2022-12-10T21:13:37;52.00;;;20.48;;
75912;SDS011;64592;52.168;21.040;2022-12-10T21:18:38;49.67;;;19.30;;
75912;SDS011;64592;52.168;21.040;2022-12-10T21:23:41;64.10;;;24.25;;
75912;SDS011;64592;52.168;21.040;2022-12-10T21:28:43;51.35;;;18.50;;
75912;SDS011;64592;52.168;21.040;2022-12-10T21:33:45;50.08;;;22.88;;
75912;SDS011;64592;52.168;21.040;2022-12-10T21:38:49;47.35;;;20.65;;
75912;SDS011;64592;52.168;21.040;2022-12-10T21:43:51;56.88;;;22.65;;
75912;SDS011;64592;52.168;21.040;2022-12-10T21:48:53;43.17;;;17.83;;
75912;SDS011;64592;52.168;21.040;2022-12-10T21:53:57;46.92;;;18.70;;
75912;SDS011;64592;52.168;21.040;2022-12-10T21:58:59;44.72;;;18.98;;
75912;SDS011;64592;52.168;21.040;2022-12-10T22:04:01;50.45;;;19.85;;
75912;SDS011;64592;52.168;21.040;2022-12-10T22:09:04;45.40;;;17.42;;
75912;SDS011;64592;52.168;21.040;2022-12-10T22:14:05;47.42;;;21.63;;
75912;SDS011;64592;52.168;21.040;2022-12-10T22:19:07;47.33;;;19.55;;
75912;SDS011;64592;52.168;21.040;2022-12-10T22:24:10;41.67;;;18.52;;
75912;SDS011;64592;52.168;21.040;2022-12-10T22:29:12;38.67;;;18.67;;
75912;SDS011;64592;52.168;21.040;2022-12-10T22:34:13;40.35;;;18.23;;
75912;SDS011;64592;52.168;21.040;2022-12-10T22:39:16;49.33;;;15.35;;
75912;SDS011;64592;52.168;21.040;2022-12-10T22:44:19;47.00;;;16.17;;
75912;SDS011;64592;52.168;21.040;2022-12-10T22:49:20;50.20;;;19.27;;
75912;SDS011;64592;52.168;21.040;2022-12-10T22:54:23;45.75;;;16.40;;
75912;SDS011;64592;52.168;21.040;2022-12-10T22:59:25;54.58;;;18.42;;
75912;SDS011;64592;52.168;21.040;2022-12-10T23:04:27;53.30;;;20.63;;
75912;SDS011;64592;52.168;21.040;2022-12-10T23:09:30;49.63;;;23.02;;
75912;SDS011;64592;52.168;21.040;2022-12-10T23:14:32;51.00;;;17.83;;
75912;SDS011;64592;52.168;21.040;2022-12-10T23:19:35;50.05;;;17.77;;
75912;SDS011;64592;52.168;21.040;2022-12-10T23:24:38;58.58;;;20.52;;
75912;SDS011;64592;52.168;21.040;2022-12-10T23:29:39;53.92;;;20.38;;
75912;SDS011;64592;52.168;21.040;2022-12-10T23:34:41;48.10;;;22.08;;
75912;SDS011;64592;52.168;21.040;2022-12-10T23:39:44;52.50;;;18.15;;
75912;SDS011;64592;52.168;21.040;2022-12-10T23:44:45;50.88;;;19.65;;
75912;SDS011;64592;52.168;21.040;2022-12-10T23:49:50;51.22;;;17.80;;
75912;SDS011;64592;52.168;21.040;2022-12-10T23:54:53;52.85;;;19.50;;
75912;SDS011;64592;52.168;21.040;2022-12-10T23:59:55;51.42;;;19.17;;
